createdAt,value
2018-01-23T00:02:13.261Z,99.00
2018-01-23T00:04:41.526Z,99.00
2018-01-23T00:07:08.970Z,99.00
2018-01-23T00:09:36.426Z,99.00
2018-01-23T00:12:03.886Z,99.00
2018-01-23T00:14:31.378Z,99.30
2018-01-23T00:16:59.580Z,99.00
2018-01-23T00:19:27.055Z,99.00
2018-01-23T00:21:54.500Z,99.00
2018-01-23T00:24:21.971Z,99.30
2018-01-23T00:26:50.191Z,99.00
2018-01-23T00:29:17.671Z,99.00
2018-01-23T00:31:45.114Z,99.00
2018-01-23T00:34:12.562Z,99.00
2018-01-23T00:36:40.031Z,99.00
2018-01-23T00:39:07.511Z,99.00
2018-01-23T00:41:34.967Z,99.00
2018-01-23T00:44:02.433Z,99.00
2018-01-23T00:46:29.935Z,99.00
2018-01-23T00:48:57.344Z,99.00
2018-01-23T00:51:24.791Z,99.00
2018-01-23T00:53:52.259Z,99.00
2018-01-23T00:56:19.763Z,99.00
2018-01-23T00:58:47.973Z,99.00
2018-01-23T01:01:15.434Z,99.00
2018-01-23T01:03:42.904Z,99.00
2018-01-23T01:06:10.397Z,99.00
2018-01-23T01:08:37.830Z,99.00
2018-01-23T01:11:05.270Z,99.00
2018-01-23T01:13:32.758Z,99.00
2018-01-23T01:16:00.247Z,99.00
2018-01-23T01:18:28.455Z,99.10
2018-01-23T01:20:55.915Z,99.00
2018-01-23T01:23:23.403Z,99.00
2018-01-23T01:25:51.291Z,99.00
2018-01-23T01:28:19.514Z,99.10
2018-01-23T01:30:47.028Z,99.00
2018-01-23T01:41:47.510Z,99.00
2018-01-23T01:44:15.726Z,99.10
2018-01-23T01:46:43.283Z,99.10
2018-01-23T01:49:10.750Z,99.00
2018-01-23T01:51:38.210Z,99.00
2018-01-23T01:54:05.675Z,99.00
2018-01-23T01:56:33.122Z,99.00
2018-01-23T01:59:00.577Z,99.00
2018-01-23T02:01:28.023Z,99.00
2018-01-23T02:03:55.482Z,99.00
2018-01-23T02:06:22.958Z,99.00
2018-01-23T02:08:50.399Z,99.00
2018-01-23T02:11:17.861Z,99.00
2018-01-23T02:13:45.326Z,99.00
2018-01-23T02:16:12.791Z,99.10
2018-01-23T02:18:40.242Z,99.00
2018-01-23T02:21:07.705Z,99.00
2018-01-23T02:23:35.162Z,99.00
2018-01-23T02:26:02.602Z,99.10
2018-01-23T02:28:30.070Z,99.10
2018-01-23T02:30:57.538Z,99.10
2018-01-23T02:33:25.002Z,99.00
2018-01-23T02:35:52.462Z,99.10
2018-01-23T02:38:19.910Z,99.10
2018-01-23T02:40:47.367Z,99.00
2018-01-23T02:43:14.814Z,99.10
2018-01-23T02:45:42.273Z,99.00
2018-01-23T02:48:09.722Z,99.10
2018-01-23T02:50:37.183Z,99.10
2018-01-23T02:55:54.890Z,99.10
2018-01-23T02:58:22.367Z,99.10
2018-01-23T03:00:49.863Z,99.10
2018-01-23T03:03:17.342Z,99.10
2018-01-23T03:05:45.566Z,99.10
2018-01-23T03:08:13.062Z,99.10
2018-01-23T03:10:40.522Z,99.10
2018-01-23T03:13:08.009Z,99.10
2018-01-23T03:15:35.494Z,99.10
2018-01-23T03:18:02.982Z,99.10
2018-01-23T03:20:30.466Z,99.10
2018-01-23T03:22:57.994Z,99.10
2018-01-23T03:25:25.446Z,99.10
2018-01-23T03:27:52.940Z,99.10
2018-01-23T03:30:21.164Z,99.10
2018-01-23T03:32:48.668Z,99.10
2018-01-23T03:35:16.099Z,99.10
2018-01-23T03:37:43.569Z,99.10
2018-01-23T03:40:11.035Z,99.10
2018-01-23T03:42:39.250Z,99.10
2018-01-23T03:45:06.691Z,99.10
2018-01-23T03:47:34.171Z,99.10
2018-01-23T03:50:01.619Z,99.10
2018-01-23T03:52:29.082Z,99.10
2018-01-23T03:54:56.543Z,99.10
2018-01-23T03:57:24.026Z,99.10
2018-01-23T03:59:51.491Z,99.10
2018-01-23T04:02:18.942Z,99.10
2018-01-23T04:04:46.378Z,99.10
2018-01-23T04:07:13.845Z,99.10
2018-01-23T04:09:41.287Z,99.10
2018-01-23T04:12:08.754Z,99.00
2018-01-23T04:14:36.206Z,99.00
2018-01-23T04:17:04.415Z,99.10
2018-01-23T04:19:31.878Z,99.10
2018-01-23T04:21:59.319Z,99.10
2018-01-23T04:24:26.780Z,99.10
2018-01-23T04:26:54.222Z,99.10
2018-01-23T04:29:21.681Z,99.10
2018-01-23T04:31:49.142Z,99.10
2018-01-23T04:34:16.590Z,99.40
2018-01-23T04:36:44.038Z,99.10
2018-01-23T04:39:11.502Z,99.10
2018-01-23T04:41:38.966Z,99.10
2018-01-23T04:44:06.421Z,99.40
2018-01-23T04:46:33.873Z,99.10
2018-01-23T04:49:01.346Z,99.10
2018-01-23T04:51:28.791Z,99.10
2018-01-23T04:53:56.242Z,99.10
2018-01-23T04:56:23.708Z,99.10
2018-01-23T04:58:51.175Z,99.10
2018-01-23T05:01:18.634Z,99.10
2018-01-23T05:03:46.351Z,99.10
2018-01-23T05:06:13.805Z,99.10
2018-01-23T05:08:41.274Z,99.10
2018-01-23T05:11:08.726Z,99.10
2018-01-23T05:13:36.193Z,99.10
2018-01-23T05:16:03.656Z,99.10
2018-01-23T05:18:31.134Z,99.10
2018-01-23T05:20:58.582Z,99.10
2018-01-23T05:23:26.034Z,99.10
2018-01-23T05:25:53.489Z,99.10
2018-01-23T05:28:20.954Z,99.10
2018-01-23T05:30:48.406Z,99.10
2018-01-23T05:33:15.875Z,99.10
2018-01-23T05:35:43.334Z,99.10
2018-01-23T05:38:10.811Z,99.10
2018-01-23T05:40:39.038Z,99.10
2018-01-23T05:43:06.518Z,99.10
2018-01-23T05:45:33.984Z,99.10
2018-01-23T05:48:01.452Z,99.10
2018-01-23T05:50:29.693Z,99.10
2018-01-23T05:52:57.146Z,99.10
2018-01-23T05:55:24.590Z,99.10
2018-01-23T05:57:52.059Z,99.10
2018-01-23T06:00:19.503Z,99.40
2018-01-23T06:02:46.998Z,99.50
2018-01-23T06:05:14.438Z,99.20
2018-01-23T06:07:41.911Z,99.20
2018-01-23T06:10:09.379Z,99.20
2018-01-23T06:12:37.661Z,99.20
2018-01-23T06:15:05.164Z,99.20
2018-01-23T06:17:32.600Z,99.20
2018-01-23T06:20:00.049Z,99.20
2018-01-23T06:22:28.260Z,99.20
2018-01-23T06:24:55.726Z,99.20
2018-01-23T06:27:23.182Z,99.20
2018-01-23T06:29:50.650Z,99.20
2018-01-23T06:32:18.099Z,99.20
2018-01-23T06:34:45.566Z,99.20
2018-01-23T06:37:13.058Z,99.20
2018-01-23T06:39:40.515Z,99.20
2018-01-23T06:42:07.994Z,99.20
2018-01-23T06:44:35.430Z,99.20
2018-01-23T06:47:02.895Z,99.20
2018-01-23T06:49:30.355Z,99.20
2018-01-23T06:51:57.798Z,99.20
2018-01-23T06:54:25.307Z,99.20
2018-01-23T06:56:52.767Z,99.20
2018-01-23T06:59:20.231Z,99.20
2018-01-23T07:01:47.714Z,99.20
2018-01-23T07:04:15.176Z,99.20
2018-01-23T07:06:43.382Z,99.30
2018-01-23T07:09:10.892Z,99.20
2018-01-23T07:11:38.298Z,99.30
2018-01-23T07:14:05.798Z,99.30
2018-01-23T07:16:33.255Z,99.30
2018-01-23T07:19:00.710Z,99.30
2018-01-23T07:21:28.190Z,99.30
2018-01-23T07:23:56.401Z,99.30
2018-01-23T07:26:23.907Z,99.30
2018-01-23T07:28:51.294Z,99.30
2018-01-23T07:31:18.776Z,99.30
2018-01-23T07:33:46.227Z,99.30
2018-01-23T07:36:13.687Z,99.30
2018-01-23T07:38:41.366Z,99.30
2018-01-23T07:41:08.806Z,99.30
2018-01-23T07:43:36.274Z,99.30
2018-01-23T07:46:03.751Z,99.30
2018-01-23T07:48:31.212Z,99.30
2018-01-23T07:50:58.670Z,99.40
2018-01-23T07:53:26.134Z,99.30
2018-01-23T07:55:53.586Z,99.70
2018-01-23T08:00:54.844Z,99.40
2018-01-23T08:03:22.403Z,99.30
2018-01-23T08:05:49.856Z,99.40
2018-01-23T08:08:17.303Z,99.40
2018-01-23T08:10:44.779Z,99.40
2018-01-23T08:13:12.254Z,99.50
2018-01-23T08:15:39.708Z,99.40
2018-01-23T08:18:07.919Z,99.50
2018-01-23T08:20:35.399Z,99.50
2018-01-23T08:23:02.846Z,99.50
2018-01-23T08:25:30.296Z,99.50
2018-01-23T08:27:57.751Z,99.50
2018-01-23T08:30:25.219Z,99.60
2018-01-23T08:32:52.660Z,99.60
2018-01-23T08:35:20.098Z,99.60
2018-01-23T08:37:47.594Z,99.60
2018-01-23T08:40:15.032Z,99.70
2018-01-23T08:42:42.475Z,99.70
2018-01-23T08:45:09.944Z,99.80
2018-01-23T08:47:37.403Z,99.80
2018-01-23T08:50:04.859Z,99.80
2018-01-23T08:52:32.314Z,99.80
2018-01-23T08:54:59.774Z,99.80
2018-01-23T08:57:27.214Z,99.90
2018-01-23T08:59:54.763Z,99.90
2018-01-23T09:02:22.215Z,99.90
2018-01-23T09:04:50.422Z,99.90
2018-01-23T09:07:18.000Z,99.90
2018-01-23T09:09:45.445Z,99.90
2018-01-23T09:12:12.890Z,99.90
2018-01-23T09:14:40.361Z,99.90
2018-01-23T09:17:07.810Z,99.90
2018-01-23T09:19:35.270Z,99.90
2018-01-23T09:22:02.716Z,99.90
2018-01-23T09:24:30.195Z,99.90
2018-01-23T09:26:57.637Z,99.90
2018-01-23T09:29:25.094Z,99.90
2018-01-23T09:31:52.568Z,99.90
2018-01-23T09:34:20.016Z,99.90
2018-01-23T09:36:47.459Z,99.90
2018-01-23T09:39:14.930Z,99.90
2018-01-23T09:41:42.395Z,99.90
2018-01-23T09:44:09.867Z,99.90
2018-01-23T09:46:37.326Z,99.90
2018-01-23T09:49:04.880Z,99.90
2018-01-23T09:51:32.324Z,99.90
2018-01-23T09:53:59.775Z,99.90
2018-01-23T09:56:27.234Z,99.90
2018-01-23T09:58:54.692Z,99.90
2018-01-23T10:01:22.150Z,99.90
2018-01-23T10:03:49.593Z,99.90
2018-01-23T10:06:17.046Z,99.90
2018-01-23T10:08:44.509Z,99.90
2018-01-23T10:11:11.972Z,99.90
2018-01-23T10:13:39.432Z,99.90
2018-01-23T10:16:06.900Z,99.90
2018-01-23T10:18:34.347Z,99.90
2018-01-23T10:21:01.807Z,99.90
2018-01-23T10:23:30.039Z,99.90
2018-01-23T10:25:57.487Z,99.90
2018-01-23T10:28:24.978Z,99.90
2018-01-23T10:30:52.426Z,99.90
2018-01-23T10:33:19.900Z,99.90
2018-01-23T10:35:48.106Z,99.90
2018-01-23T10:38:15.575Z,99.90
2018-01-23T10:40:43.811Z,99.90
2018-01-23T10:43:11.299Z,99.90
2018-01-23T10:45:38.742Z,99.90
2018-01-23T10:48:06.233Z,99.90
2018-01-23T10:50:33.700Z,99.90
2018-01-23T10:53:01.906Z,99.90
2018-01-23T10:55:29.376Z,99.90
2018-01-23T10:57:56.844Z,99.90
2018-01-23T11:00:24.576Z,99.90
2018-01-23T11:02:52.058Z,99.90
2018-01-23T11:05:19.512Z,99.90
2018-01-23T11:07:46.959Z,99.90
2018-01-23T11:10:14.432Z,99.90
2018-01-23T11:12:41.889Z,99.90
2018-01-23T11:15:10.118Z,99.90
2018-01-23T11:17:37.577Z,99.90
2018-01-23T11:20:05.047Z,99.90
2018-01-23T11:22:32.512Z,99.90
2018-01-23T11:24:59.964Z,99.90
2018-01-23T11:27:27.428Z,99.90
2018-01-23T11:29:54.897Z,99.90
2018-01-23T11:32:22.370Z,99.90
2018-01-23T11:34:49.791Z,99.90
2018-01-23T11:37:17.352Z,99.90
2018-01-23T11:39:44.813Z,99.90
2018-01-23T11:42:12.285Z,99.90
2018-01-23T11:44:39.742Z,99.90
2018-01-23T11:47:07.226Z,99.90
2018-01-23T11:49:34.684Z,99.90
2018-01-23T11:52:02.124Z,99.90
2018-01-23T11:54:29.605Z,99.90
2018-01-23T11:56:57.859Z,99.90
2018-01-23T11:59:25.331Z,99.90
2018-01-23T12:01:52.783Z,99.90
2018-01-23T12:04:20.230Z,99.90
2018-01-23T12:06:47.682Z,99.90
2018-01-23T12:09:15.137Z,99.90
2018-01-23T12:11:42.608Z,99.90
2018-01-23T12:14:10.057Z,99.90
2018-01-23T12:16:37.501Z,99.90
2018-01-23T12:19:04.963Z,99.70
2018-01-23T12:21:32.431Z,99.70
2018-01-23T12:24:00.010Z,99.70
2018-01-23T12:26:27.450Z,99.70
2018-01-23T12:28:54.879Z,99.70
2018-01-23T12:31:22.382Z,99.80
2018-01-23T12:33:50.658Z,99.90
2018-01-23T12:36:18.904Z,99.80
2018-01-23T12:38:46.358Z,99.80
2018-01-23T12:41:13.831Z,99.30
2018-01-23T12:43:41.289Z,98.80
2018-01-23T12:46:08.766Z,98.80
2018-01-23T12:48:36.206Z,99.10
2018-01-23T12:51:03.647Z,98.50
2018-01-23T12:53:32.623Z,98.50
2018-01-23T12:56:00.110Z,98.50
2018-01-23T12:58:27.562Z,98.40
2018-01-23T13:00:55.032Z,98.50
2018-01-23T13:03:22.488Z,98.40
2018-01-23T13:05:50.318Z,98.80
2018-01-23T13:08:17.779Z,98.40
2018-01-23T13:10:45.237Z,98.50
2018-01-23T13:13:12.773Z,98.50
2018-01-23T13:15:40.236Z,98.30
2018-01-23T13:18:07.686Z,98.20
2018-01-23T13:20:35.127Z,98.20
2018-01-23T13:23:03.540Z,97.90
2018-01-23T13:25:30.981Z,98.00
2018-01-23T13:27:58.468Z,97.80
2018-01-23T13:30:25.952Z,97.60
2018-01-23T13:32:54.167Z,97.40
2018-01-23T13:35:21.690Z,97.40
2018-01-23T13:37:49.134Z,97.30
2018-01-23T13:40:16.581Z,97.40
2018-01-23T13:42:44.021Z,97.50
2018-01-23T13:45:11.482Z,97.30
2018-01-23T13:47:38.954Z,97.40
2018-01-23T13:50:06.400Z,97.30
2018-01-23T13:52:33.881Z,97.30
2018-01-23T13:55:02.112Z,97.40
2018-01-23T13:57:29.591Z,97.40
2018-01-23T13:59:57.038Z,97.30
2018-01-23T14:02:24.483Z,97.30
2018-01-23T14:04:51.957Z,97.30
2018-01-23T14:07:19.413Z,97.20
2018-01-23T14:09:46.851Z,97.30
2018-01-23T14:12:14.336Z,97.20
2018-01-23T14:14:41.776Z,97.40
2018-01-23T14:17:09.239Z,97.20
2018-01-23T14:19:36.702Z,97.30
2018-01-23T14:22:04.170Z,97.30
2018-01-23T14:24:31.643Z,97.40
2018-01-23T14:26:59.091Z,97.40
2018-01-23T14:29:26.534Z,97.30
2018-01-23T14:31:53.993Z,97.30
2018-01-23T14:34:21.462Z,97.30
2018-01-23T14:36:48.914Z,97.30
2018-01-23T14:39:17.157Z,97.20
2018-01-23T14:41:44.640Z,97.20
2018-01-23T14:44:12.097Z,97.20
2018-01-23T14:46:40.547Z,97.20
2018-01-23T14:49:07.994Z,97.20
2018-01-23T14:51:35.437Z,97.20
2018-01-23T14:54:02.897Z,97.20
2018-01-23T14:56:30.365Z,97.00
2018-01-23T14:58:57.851Z,97.10
2018-01-23T15:01:25.350Z,97.10
2018-01-23T15:03:52.790Z,97.10
2018-01-23T15:06:20.263Z,97.10
2018-01-23T15:08:47.746Z,97.10
2018-01-23T15:11:15.194Z,96.90
2018-01-23T15:13:42.784Z,97.10
2018-01-23T15:16:10.262Z,97.10
2018-01-23T15:18:38.635Z,97.10
2018-01-23T15:21:06.089Z,97.10
2018-01-23T15:23:33.539Z,97.20
2018-01-23T15:26:00.999Z,97.10
2018-01-23T15:28:28.557Z,97.10
2018-01-23T15:30:56.013Z,97.10
2018-01-23T15:33:23.471Z,97.10
2018-01-23T15:35:51.501Z,97.10
2018-01-23T15:38:18.954Z,97.10
2018-01-23T15:40:46.402Z,97.00
2018-01-23T15:43:13.885Z,97.00
2018-01-23T15:45:41.332Z,97.10
2018-01-23T15:48:08.774Z,97.10
2018-01-23T15:50:36.243Z,97.00
2018-01-23T15:53:03.698Z,97.10
2018-01-23T15:55:31.167Z,97.10
2018-01-23T15:57:58.623Z,97.00
2018-01-23T16:00:26.128Z,97.10
2018-01-23T16:02:53.534Z,97.00
2018-01-23T16:05:21.095Z,97.10
2018-01-23T16:07:48.537Z,97.10
2018-01-23T16:10:16.014Z,97.10
2018-01-23T16:12:43.445Z,97.10
2018-01-23T16:15:10.929Z,97.10
2018-01-23T16:17:38.354Z,97.10
2018-01-23T16:20:05.824Z,97.10
2018-01-23T16:22:33.277Z,97.10
2018-01-23T16:25:00.738Z,97.10
2018-01-23T16:27:28.194Z,97.10
2018-01-23T16:29:55.661Z,97.10
2018-01-23T16:32:23.317Z,97.00
2018-01-23T16:34:50.747Z,97.10
2018-01-23T16:37:18.228Z,97.00
2018-01-23T16:39:45.703Z,97.00
2018-01-23T16:42:13.144Z,97.00
2018-01-23T16:44:40.606Z,97.00
2018-01-23T16:47:08.069Z,97.00
2018-01-23T16:49:35.510Z,97.00
2018-01-23T16:52:02.966Z,97.00
2018-01-23T16:54:30.434Z,97.00
2018-01-23T16:56:57.870Z,97.00
2018-01-23T16:59:25.372Z,96.90
2018-01-23T17:01:52.826Z,97.00
2018-01-23T17:04:20.262Z,97.00
2018-01-23T17:06:47.728Z,97.00
2018-01-23T17:09:15.164Z,96.90
2018-01-23T17:11:43.422Z,96.90
2018-01-23T17:14:10.872Z,97.00
2018-01-23T17:16:39.078Z,97.00
2018-01-23T17:19:06.540Z,97.00
2018-01-23T17:21:33.979Z,97.00
2018-01-23T17:24:01.440Z,97.00
2018-01-23T17:26:28.902Z,96.90
2018-01-23T17:28:56.339Z,96.90
2018-01-23T17:31:23.798Z,96.90
2018-01-23T17:33:51.282Z,96.90
2018-01-23T17:36:18.729Z,97.00
2018-01-23T17:38:46.203Z,97.00
2018-01-23T17:41:13.665Z,96.80
2018-01-23T17:43:41.102Z,96.90
2018-01-23T17:46:08.581Z,96.90
2018-01-23T17:48:36.046Z,96.80
2018-01-23T17:51:03.514Z,96.80
2018-01-23T17:53:30.992Z,96.80
2018-01-23T17:55:58.435Z,96.80
2018-01-23T17:58:25.874Z,96.80
2018-01-23T18:00:54.146Z,96.90
2018-01-23T18:03:21.595Z,96.90
2018-01-23T18:05:49.040Z,97.00
2018-01-23T18:08:16.526Z,97.00
2018-01-23T18:10:43.963Z,97.00
2018-01-23T18:13:12.307Z,97.10
2018-01-23T18:15:39.747Z,97.20
2018-01-23T18:18:07.204Z,97.20
2018-01-23T18:20:34.675Z,97.20
2018-01-23T18:23:02.116Z,97.30
2018-01-23T18:25:30.348Z,97.40
2018-01-23T18:27:57.829Z,97.30
2018-01-23T18:30:26.213Z,97.40
2018-01-23T18:32:53.684Z,97.40
2018-01-23T18:35:22.501Z,97.50
2018-01-23T18:37:49.979Z,97.50
2018-01-23T18:40:17.439Z,97.50
2018-01-23T18:42:45.504Z,97.60
2018-01-23T18:45:12.971Z,97.60
2018-01-23T18:47:41.183Z,98.00
2018-01-23T18:50:08.656Z,97.60
2018-01-23T18:52:36.137Z,97.70
2018-01-23T18:55:03.621Z,97.70
2018-01-23T18:57:31.143Z,97.70
2018-01-23T18:59:58.603Z,97.70
2018-01-23T19:02:26.095Z,97.70
2018-01-23T19:04:53.542Z,97.80
2018-01-23T19:07:21.812Z,97.90
2018-01-23T19:09:50.476Z,97.90
2018-01-23T19:12:17.936Z,97.90
2018-01-23T19:14:46.406Z,97.90
2018-01-23T19:17:14.806Z,98.00
2018-01-23T19:19:43.024Z,98.00
2018-01-23T19:22:11.152Z,98.00
2018-01-23T19:24:42.451Z,98.10
2018-01-23T19:27:10.367Z,98.10
2018-01-23T19:29:39.465Z,98.10
2018-01-23T19:32:08.289Z,98.10
2018-01-23T19:34:36.182Z,98.20
2018-01-23T19:37:05.910Z,98.20
2018-01-23T19:39:33.455Z,98.20
2018-01-23T19:42:01.696Z,98.30
2018-01-23T19:44:29.172Z,98.30
2018-01-23T19:46:57.432Z,98.30
2018-01-23T19:49:25.483Z,98.30
2018-01-23T19:51:53.448Z,98.40
2018-01-23T19:54:20.943Z,98.40
2018-01-23T19:56:48.406Z,98.40
2018-01-23T19:59:16.085Z,98.30
2018-01-23T20:01:44.325Z,98.40
2018-01-23T20:04:12.012Z,98.40
2018-01-23T20:06:39.466Z,98.40
2018-01-23T20:09:08.623Z,98.50
2018-01-23T20:11:38.107Z,98.50
2018-01-23T20:14:06.296Z,98.60
2018-01-23T20:16:33.746Z,98.60
2018-01-23T20:19:02.016Z,98.70
2018-01-23T20:21:31.885Z,98.70
2018-01-23T20:23:59.504Z,98.80
2018-01-23T20:26:27.682Z,98.80
2018-01-23T20:28:59.199Z,98.80
2018-01-23T20:31:28.141Z,98.80
2018-01-23T20:33:55.624Z,98.80
2018-01-23T20:36:23.552Z,98.80
2018-01-23T20:38:52.219Z,98.80
2018-01-23T20:41:19.719Z,98.90
2018-01-23T20:43:47.174Z,98.90
2018-01-23T20:46:14.710Z,98.90
2018-01-23T20:48:42.191Z,98.90
2018-01-23T20:51:10.205Z,98.90
2018-01-23T20:53:37.699Z,99.00
2018-01-23T20:56:05.466Z,99.00
2018-01-23T20:58:32.956Z,99.00
2018-01-23T21:01:00.424Z,99.00
2018-01-23T21:03:28.683Z,99.10
2018-01-23T21:05:56.920Z,99.10
2018-01-23T21:08:25.639Z,99.10
2018-01-23T21:10:53.115Z,99.10
2018-01-23T21:13:22.348Z,99.20
2018-01-23T21:15:49.831Z,99.10
2018-01-23T21:18:18.162Z,99.10
2018-01-23T21:20:46.388Z,99.20
2018-01-23T21:23:15.173Z,99.30
2018-01-23T21:25:42.627Z,99.20
2018-01-23T21:28:10.083Z,99.20
2018-01-23T21:30:38.384Z,99.30
2018-01-23T21:33:06.738Z,99.40
2018-01-23T21:35:34.208Z,99.30
2018-01-23T21:38:01.683Z,99.40
2018-01-23T21:40:29.121Z,99.40
2018-01-23T21:42:56.579Z,99.40
2018-01-23T21:45:24.410Z,99.50
2018-01-23T21:47:51.884Z,99.50
2018-01-23T21:50:19.321Z,99.50
2018-01-23T21:52:47.703Z,99.50
2018-01-23T21:55:15.126Z,99.50
2018-01-23T21:57:43.386Z,99.50
2018-01-23T22:00:10.827Z,99.50
2018-01-23T22:02:38.307Z,99.50
2018-01-23T22:05:06.534Z,99.50
2018-01-23T22:07:33.979Z,99.50
2018-01-23T22:10:01.439Z,99.50
2018-01-23T22:12:28.912Z,99.50
2018-01-23T22:14:56.374Z,99.50
2018-01-23T22:17:23.858Z,99.50
2018-01-23T22:19:51.287Z,99.90
2018-01-23T22:22:18.746Z,99.50
2018-01-23T22:24:46.215Z,99.50
2018-01-23T22:27:13.687Z,99.50
2018-01-23T22:29:41.931Z,99.50
2018-01-23T22:32:09.373Z,99.50
2018-01-23T22:34:37.571Z,99.50
2018-01-23T22:37:05.022Z,99.50
2018-01-23T22:39:32.474Z,99.50
2018-01-23T22:41:59.931Z,99.50
2018-01-23T22:44:27.426Z,99.50
2018-01-23T22:46:54.930Z,99.50
2018-01-23T22:49:22.387Z,99.50
2018-01-23T22:51:49.915Z,99.50
2018-01-23T22:54:19.492Z,99.50
2018-01-23T22:56:46.954Z,99.50
2018-01-23T22:59:14.426Z,99.50
2018-01-23T23:01:42.651Z,99.60
2018-01-23T23:04:10.115Z,99.60
2018-01-23T23:06:37.562Z,99.60
2018-01-23T23:09:05.019Z,99.60
2018-01-23T23:11:32.462Z,99.60
2018-01-23T23:13:59.953Z,99.60
2018-01-23T23:16:27.378Z,99.60
2018-01-23T23:18:54.851Z,99.60
2018-01-23T23:21:22.326Z,99.60
2018-01-23T23:23:49.874Z,99.60
2018-01-23T23:26:17.326Z,99.60
2018-01-23T23:28:44.795Z,99.60
2018-01-23T23:31:12.258Z,99.60
2018-01-23T23:33:39.730Z,99.70
2018-01-23T23:36:07.187Z,99.70
2018-01-23T23:38:34.631Z,99.70
2018-01-23T23:41:02.087Z,99.70
2018-01-23T23:43:29.554Z,99.70
2018-01-23T23:45:57.023Z,99.70
2018-01-23T23:48:24.469Z,99.70
2018-01-23T23:50:51.912Z,99.70
2018-01-23T23:53:19.379Z,99.70
2018-01-23T23:55:46.831Z,99.70
2018-01-23T23:58:14.307Z,99.80
